Flight Track Log - Related Links

Times and Time Zones

All times are in EDT time to prevent confusion due to time zone crossing. See the DAL872 flight status page for this flight to view local times or setup timezone preferences in your user account.

Time Position Orientation Groundspeed Altitude Reporting Facility
EDT Latitude Longitude Course Direction KTS MPH feet Rate Location/Type
Tue 07:36:30 AM 43.1694 -89.2047 93° East 229 264 4,500  Level Chicago Center
Tue 07:37:30 AM 43.1650 -89.0994 96° East 265 305 8,100 2,950 Climbing Chicago Center
Tue 07:38:30 AM 43.1564 -88.9883 94° East 285 328 10,400 1,850 Climbing Chicago Center
Tue 07:39:30 AM 43.1497 -88.8547 95° East 321 369 11,800 2,050 Climbing Chicago Center
Tue 07:40:30 AM 43.1406 -88.7039 95° East 368 423 14,500 2,650 Climbing Chicago Center
Tue 07:41:30 AM 43.1314 -88.5561 94° East 388 447 17,100 2,400 Climbing Chicago Center
Tue 07:42:30 AM 43.1239 -88.4056 92° East 393 452 19,300 1,950 Climbing Chicago Center
Tue 07:43:30 AM 43.1203 -88.2436 80° East 407 468 21,000 1,650 Climbing Chicago Center
Tue 07:44:30 AM 43.1417 -88.0808 79° East 425 489 22,600 1,700 Climbing Chicago Center
Tue 07:45:30 AM 43.1647 -87.9097 81° East 440 506 24,400 1,650 Climbing Chicago Center
Tue 07:46:30 AM 43.1833 -87.7411 80° East 450 518 25,900 1,650 Climbing Chicago Center
Tue 07:47:30 AM 43.2058 -87.5697 81° East 450 518 27,700 1,550 Climbing Chicago Center
Tue 07:48:30 AM 43.2258 -87.3983 79° East 450 518 29,000 650 Climbing Chicago Center
Tue 07:49:30 AM 43.2464 -87.2494 81° East 445 512 29,000  Level Chicago Center
Tue 07:50:30 AM 43.2661 -87.0806 81° East 445 512 29,000  Level Chicago Center
Tue 07:51:30 AM 43.2856 -86.9086 81° East 450 518 29,000  Level Chicago Center
Tue 07:52:30 AM 43.3044 -86.7339 81° East 455 524 29,000  Level Chicago Center
Tue 07:53:30 AM 43.3250 -86.5444 80° East 455 524 29,000  Level Chicago Center
Tue 07:54:30 AM 43.3458 -86.3753 82° East 450 518 29,000 -250 Level Chicago Center
Tue 07:55:30 AM 43.3642 -86.2031 81° East 450 518 28,500 -750 Descending Chicago Center
Tue 07:56:30 AM 43.3825 -86.0392 94° East 445 512 27,500 -900 Descending Chicago Center
Tue 07:57:30 AM 43.3742 -85.8939 105° East 438 504 26,700 -900 Descending Chicago Center
Tue 07:58:30 AM 43.3444 -85.7414 104° East 418 481 25,700 -1,000 Descending Chicago Center
Tue 07:59:30 AM 43.3167 -85.5889 104° East 418 481 24,700 -1,000 Descending Chicago Center
Tue 08:00:30 AM 43.2886 -85.4364 105° East 412 474 23,700 -699 Descending Chicago Center
Tue 08:01:56 AM 43.2486 -85.2269 104° East 415 478 23,000 -288 Descending Cleveland Center
Tue 08:02:56 AM 43.2208 -85.0794 104° East 405 466 23,000  Level Cleveland Center
Tue 08:03:56 AM 43.1881 -84.9033 105° East 405 466 23,000 -100 Level Cleveland Center
Tue 08:04:56 AM 43.1583 -84.7475 105° East 417 480 22,800 -600 Descending Cleveland Center
Tue 08:05:56 AM 43.1283 -84.5917 105° East 422 486 21,800 -1,000 Descending Cleveland Center
Tue 08:06:56 AM 43.0981 -84.4389 104° East 422 486 20,800 -1,000 Descending Cleveland Center
Tue 08:07:56 AM 43.0700 -84.2836 105° East 422 486 19,800 -1,000 Descending Cleveland Center
Tue 08:08:56 AM 43.0411 -84.1400 104° East 409 471 18,800 -1,550 Descending Cleveland Center
Tue 08:09:56 AM 43.0142 -83.9964 105° East 394 453 16,700 -2,200 Descending Cleveland Center
Tue 08:10:56 AM 42.9850 -83.8528 143° Southeast 388 447 14,400 -2,089 Descending Cleveland Center
Tue 08:11:48 AM 42.9200 -83.7869 157° South 352 405 12,800 -1,210 Descending Cleveland Center
Tue 08:12:55 AM 42.8297 -83.7342 154° Southeast 311 358 12,000 -797 Descending Cleveland Center
Tue 08:13:56 AM 42.7603 -83.6883 158° South 304 350 11,100 -1,289 Descending Cleveland Center
Tue 08:14:56 AM 42.6861 -83.6481 146° Southeast 298 343 9,400 -1,350 Descending Cleveland Center
Tue 08:15:56 AM 42.6211 -83.5883 131° Southeast 280 322 8,400 -1,350 Descending Cleveland Center
Tue 08:16:56 AM 42.5689 -83.5069 130° Southeast 280 322 6,700 -1,250 Descending Cleveland Center
Tue 08:17:56 AM 42.5147 -83.4197 133° Southeast 280 322 5,900 -950 Descending Cleveland Center
Tue 08:18:56 AM 42.4625 -83.3444 149° Southeast 275 316 4,800 -876 Descending Cleveland Center
Tue 08:20:13 AM 42.3908 -83.2850 181° South 230 265 3,900 -800 Descending Cleveland Center
Tue 08:20:56 AM 42.3450 -83.2858 205° Southwest 222 255 3,200 -891 Descending Cleveland Center
Tue 08:22:21 AM 42.2858 -83.3225 209° Southwest 141 162 2,000 -781 Descending Cleveland Center
Tue 08:23:22 AM 42.2539 -83.3464 209° Southwest 129 148 1,300 -689 Descending Cleveland Center

Login

Don't have an account? Register now (free) for customized features, flight alerts, and more!